sensor_id;sensor_type;location;lat;lon;timestamp;P1;durP1;ratioP1;P2;durP2;ratioP2
73850;SDS011;62190;51.548;5.688;2023-02-28T00:01:25;12.73;;;8.55;;
73850;SDS011;62190;51.548;5.688;2023-02-28T00:03:52;20.68;;;9.10;;
73850;SDS011;62190;51.548;5.688;2023-02-28T00:06:20;14.10;;;9.33;;
73850;SDS011;62190;51.548;5.688;2023-02-28T00:08:47;16.17;;;9.75;;
73850;SDS011;62190;51.548;5.688;2023-02-28T00:11:15;17.05;;;9.93;;
73850;SDS011;62190;51.548;5.688;2023-02-28T00:13:43;16.65;;;9.58;;
73850;SDS011;62190;51.548;5.688;2023-02-28T00:16:17;16.87;;;10.68;;
73850;SDS011;62190;51.548;5.688;2023-02-28T00:18:46;14.73;;;10.80;;
73850;SDS011;62190;51.548;5.688;2023-02-28T00:21:15;17.25;;;10.55;;
73850;SDS011;62190;51.548;5.688;2023-02-28T00:23:43;17.25;;;10.45;;
73850;SDS011;62190;51.548;5.688;2023-02-28T00:26:14;20.43;;;10.48;;
73850;SDS011;62190;51.548;5.688;2023-02-28T00:28:41;17.98;;;10.68;;
73850;SDS011;62190;51.548;5.688;2023-02-28T00:31:08;16.97;;;9.98;;
73850;SDS011;62190;51.548;5.688;2023-02-28T00:33:36;14.53;;;10.23;;
73850;SDS011;62190;51.548;5.688;2023-02-28T00:36:05;19.35;;;11.12;;
73850;SDS011;62190;51.548;5.688;2023-02-28T00:38:34;16.80;;;11.12;;
73850;SDS011;62190;51.548;5.688;2023-02-28T00:41:03;19.62;;;10.70;;
73850;SDS011;62190;51.548;5.688;2023-02-28T00:43:36;18.73;;;10.23;;
73850;SDS011;62190;51.548;5.688;2023-02-28T00:46:06;15.85;;;10.15;;
73850;SDS011;62190;51.548;5.688;2023-02-28T00:48:34;16.97;;;10.15;;
73850;SDS011;62190;51.548;5.688;2023-02-28T00:51:01;18.23;;;10.70;;
73850;SDS011;62190;51.548;5.688;2023-02-28T00:53:29;16.48;;;10.63;;
73850;SDS011;62190;51.548;5.688;2023-02-28T00:55:58;18.32;;;10.82;;
73850;SDS011;62190;51.548;5.688;2023-02-28T00:58:25;16.50;;;9.98;;
73850;SDS011;62190;51.548;5.688;2023-02-28T01:00:54;17.70;;;9.85;;
73850;SDS011;62190;51.548;5.688;2023-02-28T01:03:21;17.98;;;10.75;;
73850;SDS011;62190;51.548;5.688;2023-02-28T01:05:49;17.55;;;10.23;;
73850;SDS011;62190;51.548;5.688;2023-02-28T01:08:18;16.57;;;10.60;;
73850;SDS011;62190;51.548;5.688;2023-02-28T01:10:47;17.05;;;10.05;;
73850;SDS011;62190;51.548;5.688;2023-02-28T01:13:15;23.75;;;11.55;;
73850;SDS011;62190;51.548;5.688;2023-02-28T01:15:48;18.35;;;10.93;;
73850;SDS011;62190;51.548;5.688;2023-02-28T01:18:16;19.37;;;11.48;;
73850;SDS011;62190;51.548;5.688;2023-02-28T01:20:44;22.65;;;11.73;;
73850;SDS011;62190;51.548;5.688;2023-02-28T01:23:11;17.52;;;11.18;;
73850;SDS011;62190;51.548;5.688;2023-02-28T01:25:39;22.75;;;13.22;;
73850;SDS011;62190;51.548;5.688;2023-02-28T01:28:06;29.52;;;14.80;;
73850;SDS011;62190;51.548;5.688;2023-02-28T01:30:33;23.47;;;13.22;;
73850;SDS011;62190;51.548;5.688;2023-02-28T01:33:02;23.83;;;12.58;;
73850;SDS011;62190;51.548;5.688;2023-02-28T01:35:35;24.60;;;12.80;;
73850;SDS011;62190;51.548;5.688;2023-02-28T01:37:59;25.17;;;13.62;;
73850;SDS011;62190;51.548;5.688;2023-02-28T01:40:26;28.05;;;12.98;;
73850;SDS011;62190;51.548;5.688;2023-02-28T01:42:54;24.02;;;13.08;;
73850;SDS011;62190;51.548;5.688;2023-02-28T01:45:29;22.32;;;13.95;;
73850;SDS011;62190;51.548;5.688;2023-02-28T01:48:01;24.82;;;12.58;;
73850;SDS011;62190;51.548;5.688;2023-02-28T01:50:31;22.93;;;13.55;;
73850;SDS011;62190;51.548;5.688;2023-02-28T01:53:01;23.07;;;12.35;;
73850;SDS011;62190;51.548;5.688;2023-02-28T01:55:31;24.30;;;12.82;;
73850;SDS011;62190;51.548;5.688;2023-02-28T01:58:00;23.77;;;12.43;;
73850;SDS011;62190;51.548;5.688;2023-02-28T02:00:28;22.77;;;13.20;;
73850;SDS011;62190;51.548;5.688;2023-02-28T02:03:00;25.72;;;13.85;;
73850;SDS011;62190;51.548;5.688;2023-02-28T02:05:33;27.17;;;14.85;;
73850;SDS011;62190;51.548;5.688;2023-02-28T02:08:06;25.02;;;13.15;;
73850;SDS011;62190;51.548;5.688;2023-02-28T02:10:41;23.50;;;12.73;;
73850;SDS011;62190;51.548;5.688;2023-02-28T02:16:11;18.30;;;11.30;;
73850;SDS011;62190;51.548;5.688;2023-02-28T02:18:46;20.05;;;11.73;;
73850;SDS011;62190;51.548;5.688;2023-02-28T02:21:37;15.75;;;10.82;;
73850;SDS011;62190;51.548;5.688;2023-02-28T02:24:16;17.40;;;10.03;;
73850;SDS011;62190;51.548;5.688;2023-02-28T02:26:52;21.35;;;11.88;;
73850;SDS011;62190;51.548;5.688;2023-02-28T02:35:11;15.10;;;9.93;;
73850;SDS011;62190;51.548;5.688;2023-02-28T02:37:56;17.67;;;9.80;;
73850;SDS011;62190;51.548;5.688;2023-02-28T02:40:34;18.05;;;9.85;;
73850;SDS011;62190;51.548;5.688;2023-02-28T02:43:19;16.27;;;10.08;;
73850;SDS011;62190;51.548;5.688;2023-02-28T02:45:59;17.70;;;10.05;;
73850;SDS011;62190;51.548;5.688;2023-02-28T02:48:33;20.05;;;10.75;;
73850;SDS011;62190;51.548;5.688;2023-02-28T02:51:04;17.57;;;9.88;;
73850;SDS011;62190;51.548;5.688;2023-02-28T02:53:35;15.03;;;9.90;;
73850;SDS011;62190;51.548;5.688;2023-02-28T02:56:04;17.55;;;9.78;;
73850;SDS011;62190;51.548;5.688;2023-02-28T02:58:35;18.20;;;9.68;;
73850;SDS011;62190;51.548;5.688;2023-02-28T03:01:05;17.40;;;9.98;;
73850;SDS011;62190;51.548;5.688;2023-02-28T03:03:32;16.65;;;9.28;;
73850;SDS011;62190;51.548;5.688;2023-02-28T03:06:00;16.80;;;10.90;;
73850;SDS011;62190;51.548;5.688;2023-02-28T03:08:31;15.20;;;9.58;;
73850;SDS011;62190;51.548;5.688;2023-02-28T03:11:06;18.37;;;9.05;;
73850;SDS011;62190;51.548;5.688;2023-02-28T03:16:59;14.23;;;8.73;;
73850;SDS011;62190;51.548;5.688;2023-02-28T03:25:18;14.53;;;8.23;;
73850;SDS011;62190;51.548;5.688;2023-02-28T03:30:54;14.47;;;9.15;;
73850;SDS011;62190;51.548;5.688;2023-02-28T03:33:30;18.23;;;9.30;;
73850;SDS011;62190;51.548;5.688;2023-02-28T03:36:04;14.90;;;8.85;;
73850;SDS011;62190;51.548;5.688;2023-02-28T03:41:29;13.05;;;8.35;;
73850;SDS011;62190;51.548;5.688;2023-02-28T03:43:35;14.15;;;8.08;;
73850;SDS011;62190;51.548;5.688;2023-02-28T03:46:06;13.72;;;7.62;;
73850;SDS011;62190;51.548;5.688;2023-02-28T03:48:40;15.38;;;7.58;;
73850;SDS011;62190;51.548;5.688;2023-02-28T03:51:09;15.05;;;8.98;;
73850;SDS011;62190;51.548;5.688;2023-02-28T03:53:40;14.50;;;7.47;;
73850;SDS011;62190;51.548;5.688;2023-02-28T03:56:16;12.93;;;7.42;;
73850;SDS011;62190;51.548;5.688;2023-02-28T03:58:54;14.15;;;8.15;;
73850;SDS011;62190;51.548;5.688;2023-02-28T04:01:28;14.78;;;7.50;;
73850;SDS011;62190;51.548;5.688;2023-02-28T04:04:00;12.07;;;7.25;;
73850;SDS011;62190;51.548;5.688;2023-02-28T04:06:29;14.63;;;8.05;;
73850;SDS011;62190;51.548;5.688;2023-02-28T04:08:57;13.60;;;7.37;;
73850;SDS011;62190;51.548;5.688;2023-02-28T04:14:02;13.05;;;7.53;;
73850;SDS011;62190;51.548;5.688;2023-02-28T04:16:31;11.90;;;6.80;;
73850;SDS011;62190;51.548;5.688;2023-02-28T04:18:59;12.50;;;6.65;;
73850;SDS011;62190;51.548;5.688;2023-02-28T04:21:37;14.43;;;6.60;;
73850;SDS011;62190;51.548;5.688;2023-02-28T04:26:33;15.25;;;6.60;;
73850;SDS011;62190;51.548;5.688;2023-02-28T04:29:04;11.97;;;6.72;;
73850;SDS011;62190;51.548;5.688;2023-02-28T04:31:33;11.83;;;6.45;;
73850;SDS011;62190;51.548;5.688;2023-02-28T04:34:01;10.28;;;6.35;;
73850;SDS011;62190;51.548;5.688;2023-02-28T04:36:29;11.40;;;6.83;;
73850;SDS011;62190;51.548;5.688;2023-02-28T04:38:57;9.60;;;6.50;;
73850;SDS011;62190;51.548;5.688;2023-02-28T04:41:25;9.80;;;6.92;;
73850;SDS011;62190;51.548;5.688;2023-02-28T04:43:54;12.95;;;5.90;;
73850;SDS011;62190;51.548;5.688;2023-02-28T04:46:25;10.28;;;5.92;;
73850;SDS011;62190;51.548;5.688;2023-02-28T04:48:52;13.62;;;6.67;;
73850;SDS011;62190;51.548;5.688;2023-02-28T04:51:21;12.35;;;6.65;;
73850;SDS011;62190;51.548;5.688;2023-02-28T04:53:48;12.25;;;6.83;;
73850;SDS011;62190;51.548;5.688;2023-02-28T04:56:16;10.65;;;6.72;;
73850;SDS011;62190;51.548;5.688;2023-02-28T04:58:45;9.90;;;6.17;;
73850;SDS011;62190;51.548;5.688;2023-02-28T05:01:17;8.28;;;6.05;;
73850;SDS011;62190;51.548;5.688;2023-02-28T05:03:51;9.48;;;5.87;;
73850;SDS011;62190;51.548;5.688;2023-02-28T05:06:21;9.40;;;5.97;;
73850;SDS011;62190;51.548;5.688;2023-02-28T05:08:51;10.48;;;6.58;;
73850;SDS011;62190;51.548;5.688;2023-02-28T05:13:48;9.20;;;6.28;;
73850;SDS011;62190;51.548;5.688;2023-02-28T05:16:16;8.90;;;6.25;;
73850;SDS011;62190;51.548;5.688;2023-02-28T05:18:44;8.73;;;5.72;;
73850;SDS011;62190;51.548;5.688;2023-02-28T05:23:49;10.43;;;5.97;;
73850;SDS011;62190;51.548;5.688;2023-02-28T05:26:18;10.93;;;6.30;;
73850;SDS011;62190;51.548;5.688;2023-02-28T05:28:45;9.73;;;5.67;;
73850;SDS011;62190;51.548;5.688;2023-02-28T05:31:12;10.35;;;6.00;;
73850;SDS011;62190;51.548;5.688;2023-02-28T05:33:40;8.55;;;6.00;;
73850;SDS011;62190;51.548;5.688;2023-02-28T05:36:08;7.95;;;5.55;;
73850;SDS011;62190;51.548;5.688;2023-02-28T05:38:35;13.65;;;6.37;;
73850;SDS011;62190;51.548;5.688;2023-02-28T05:41:06;10.03;;;5.80;;
73850;SDS011;62190;51.548;5.688;2023-02-28T05:43:34;10.70;;;5.50;;
73850;SDS011;62190;51.548;5.688;2023-02-28T05:46:08;8.85;;;5.10;;
73850;SDS011;62190;51.548;5.688;2023-02-28T05:48:32;10.32;;;5.00;;
73850;SDS011;62190;51.548;5.688;2023-02-28T05:51:01;7.90;;;5.22;;
73850;SDS011;62190;51.548;5.688;2023-02-28T05:53:28;6.70;;;5.22;;
73850;SDS011;62190;51.548;5.688;2023-02-28T05:55:56;8.78;;;5.40;;
73850;SDS011;62190;51.548;5.688;2023-02-28T05:58:24;11.83;;;5.25;;
73850;SDS011;62190;51.548;5.688;2023-02-28T06:00:53;10.80;;;5.47;;
73850;SDS011;62190;51.548;5.688;2023-02-28T06:03:21;7.47;;;4.72;;
73850;SDS011;62190;51.548;5.688;2023-02-28T06:05:48;7.87;;;4.97;;
73850;SDS011;62190;51.548;5.688;2023-02-28T06:08:16;6.15;;;4.87;;
73850;SDS011;62190;51.548;5.688;2023-02-28T06:10:43;7.05;;;4.45;;
73850;SDS011;62190;51.548;5.688;2023-02-28T06:13:11;9.10;;;4.42;;
73850;SDS011;62190;51.548;5.688;2023-02-28T06:15:38;9.58;;;4.87;;
73850;SDS011;62190;51.548;5.688;2023-02-28T06:18:06;8.15;;;4.75;;
73850;SDS011;62190;51.548;5.688;2023-02-28T06:20:33;8.13;;;4.55;;
73850;SDS011;62190;51.548;5.688;2023-02-28T06:23:01;5.65;;;4.00;;
73850;SDS011;62190;51.548;5.688;2023-02-28T06:25:29;7.00;;;4.20;;
73850;SDS011;62190;51.548;5.688;2023-02-28T06:27:56;7.25;;;4.42;;
73850;SDS011;62190;51.548;5.688;2023-02-28T06:30:23;6.25;;;3.90;;
73850;SDS011;62190;51.548;5.688;2023-02-28T06:32:52;6.47;;;3.92;;
73850;SDS011;62190;51.548;5.688;2023-02-28T06:35:21;7.55;;;4.60;;
73850;SDS011;62190;51.548;5.688;2023-02-28T06:37:48;6.95;;;4.83;;
73850;SDS011;62190;51.548;5.688;2023-02-28T06:40:15;9.90;;;4.53;;
73850;SDS011;62190;51.548;5.688;2023-02-28T06:42:43;9.98;;;4.50;;
73850;SDS011;62190;51.548;5.688;2023-02-28T06:45:10;8.63;;;4.62;;
73850;SDS011;62190;51.548;5.688;2023-02-28T06:47:38;5.83;;;4.05;;
73850;SDS011;62190;51.548;5.688;2023-02-28T06:50:07;9.70;;;5.30;;
73850;SDS011;62190;51.548;5.688;2023-02-28T06:52:36;9.18;;;4.45;;
73850;SDS011;62190;51.548;5.688;2023-02-28T06:55:04;8.63;;;4.72;;
73850;SDS011;62190;51.548;5.688;2023-02-28T06:57:34;12.82;;;5.28;;
73850;SDS011;62190;51.548;5.688;2023-02-28T07:00:05;8.88;;;4.97;;
73850;SDS011;62190;51.548;5.688;2023-02-28T07:02:33;10.03;;;5.17;;
73850;SDS011;62190;51.548;5.688;2023-02-28T07:05:01;9.83;;;5.00;;
73850;SDS011;62190;51.548;5.688;2023-02-28T07:07:29;7.45;;;5.10;;
73850;SDS011;62190;51.548;5.688;2023-02-28T07:09:58;10.90;;;4.62;;
73850;SDS011;62190;51.548;5.688;2023-02-28T07:12:26;9.30;;;4.83;;
73850;SDS011;62190;51.548;5.688;2023-02-28T07:14:53;9.53;;;6.42;;
73850;SDS011;62190;51.548;5.688;2023-02-28T07:17:21;9.08;;;5.03;;
73850;SDS011;62190;51.548;5.688;2023-02-28T07:19:48;9.08;;;4.03;;
73850;SDS011;62190;51.548;5.688;2023-02-28T07:22:15;10.30;;;6.05;;
73850;SDS011;62190;51.548;5.688;2023-02-28T07:24:43;8.63;;;4.75;;
73850;SDS011;62190;51.548;5.688;2023-02-28T07:27:10;8.45;;;4.05;;
73850;SDS011;62190;51.548;5.688;2023-02-28T07:29:37;7.87;;;4.20;;
73850;SDS011;62190;51.548;5.688;2023-02-28T07:32:05;7.30;;;4.17;;
73850;SDS011;62190;51.548;5.688;2023-02-28T07:34:32;7.65;;;3.87;;
73850;SDS011;62190;51.548;5.688;2023-02-28T07:36:59;6.90;;;3.90;;
73850;SDS011;62190;51.548;5.688;2023-02-28T07:39:28;7.08;;;3.92;;
73850;SDS011;62190;51.548;5.688;2023-02-28T07:41:55;6.35;;;3.58;;
73850;SDS011;62190;51.548;5.688;2023-02-28T07:44:23;8.20;;;3.10;;
73850;SDS011;62190;51.548;5.688;2023-02-28T07:46:51;7.60;;;3.47;;
73850;SDS011;62190;51.548;5.688;2023-02-28T07:49:18;5.20;;;2.77;;
73850;SDS011;62190;51.548;5.688;2023-02-28T07:51:45;5.55;;;3.02;;
73850;SDS011;62190;51.548;5.688;2023-02-28T07:54:13;4.65;;;2.77;;
73850;SDS011;62190;51.548;5.688;2023-02-28T07:56:40;6.42;;;2.60;;
73850;SDS011;62190;51.548;5.688;2023-02-28T07:59:07;5.65;;;2.67;;
73850;SDS011;62190;51.548;5.688;2023-02-28T08:01:35;4.62;;;2.02;;
73850;SDS011;62190;51.548;5.688;2023-02-28T08:04:03;4.97;;;2.50;;
73850;SDS011;62190;51.548;5.688;2023-02-28T08:06:32;4.47;;;2.42;;
73850;SDS011;62190;51.548;5.688;2023-02-28T08:08:59;4.35;;;2.30;;
73850;SDS011;62190;51.548;5.688;2023-02-28T08:11:26;2.58;;;1.40;;
73850;SDS011;62190;51.548;5.688;2023-02-28T08:13:54;2.65;;;1.85;;
73850;SDS011;62190;51.548;5.688;2023-02-28T08:16:21;4.22;;;2.17;;
73850;SDS011;62190;51.548;5.688;2023-02-28T08:18:49;2.98;;;1.85;;
73850;SDS011;62190;51.548;5.688;2023-02-28T08:21:17;4.90;;;1.90;;
73850;SDS011;62190;51.548;5.688;2023-02-28T08:23:48;3.58;;;1.70;;
73850;SDS011;62190;51.548;5.688;2023-02-28T08:26:16;3.83;;;1.40;;
73850;SDS011;62190;51.548;5.688;2023-02-28T08:28:44;3.90;;;1.85;;
73850;SDS011;62190;51.548;5.688;2023-02-28T08:31:13;3.25;;;1.47;;
73850;SDS011;62190;51.548;5.688;2023-02-28T08:33:41;3.65;;;1.90;;
73850;SDS011;62190;51.548;5.688;2023-02-28T08:36:10;6.72;;;2.00;;
73850;SDS011;62190;51.548;5.688;2023-02-28T08:38:37;5.55;;;2.33;;
73850;SDS011;62190;51.548;5.688;2023-02-28T08:41:06;3.30;;;2.10;;
73850;SDS011;62190;51.548;5.688;2023-02-28T08:43:35;4.05;;;2.50;;
73850;SDS011;62190;51.548;5.688;2023-02-28T08:46:03;13.05;;;4.33;;
73850;SDS011;62190;51.548;5.688;2023-02-28T08:48:31;7.22;;;2.50;;
73850;SDS011;62190;51.548;5.688;2023-02-28T08:51:04;4.17;;;2.27;;
73850;SDS011;62190;51.548;5.688;2023-02-28T08:53:38;3.87;;;1.82;;
73850;SDS011;62190;51.548;5.688;2023-02-28T08:56:08;5.87;;;2.22;;
73850;SDS011;62190;51.548;5.688;2023-02-28T08:58:37;3.47;;;1.67;;
73850;SDS011;62190;51.548;5.688;2023-02-28T09:01:09;3.92;;;2.00;;
73850;SDS011;62190;51.548;5.688;2023-02-28T09:03:38;4.30;;;1.90;;
73850;SDS011;62190;51.548;5.688;2023-02-28T09:06:07;2.58;;;1.82;;
73850;SDS011;62190;51.548;5.688;2023-02-28T09:08:36;3.25;;;2.27;;
73850;SDS011;62190;51.548;5.688;2023-02-28T09:11:03;4.97;;;1.55;;
73850;SDS011;62190;51.548;5.688;2023-02-28T09:13:31;4.62;;;2.58;;
73850;SDS011;62190;51.548;5.688;2023-02-28T09:15:59;3.35;;;1.80;;
73850;SDS011;62190;51.548;5.688;2023-02-28T09:18:28;2.75;;;1.90;;
73850;SDS011;62190;51.548;5.688;2023-02-28T09:20:55;4.28;;;1.98;;
73850;SDS011;62190;51.548;5.688;2023-02-28T09:23:23;3.80;;;2.30;;
73850;SDS011;62190;51.548;5.688;2023-02-28T09:25:52;3.90;;;1.87;;
73850;SDS011;62190;51.548;5.688;2023-02-28T09:28:20;2.60;;;1.60;;
73850;SDS011;62190;51.548;5.688;2023-02-28T09:30:49;5.55;;;1.98;;
73850;SDS011;62190;51.548;5.688;2023-02-28T09:33:18;4.55;;;1.90;;
73850;SDS011;62190;51.548;5.688;2023-02-28T09:35:47;5.37;;;2.27;;
73850;SDS011;62190;51.548;5.688;2023-02-28T09:38:15;5.40;;;2.65;;
73850;SDS011;62190;51.548;5.688;2023-02-28T09:40:50;1.80;;;1.22;;
73850;SDS011;62190;51.548;5.688;2023-02-28T09:43:20;3.02;;;1.20;;
73850;SDS011;62190;51.548;5.688;2023-02-28T09:46:00;1.50;;;1.10;;
73850;SDS011;62190;51.548;5.688;2023-02-28T09:48:43;1.75;;;1.02;;
73850;SDS011;62190;51.548;5.688;2023-02-28T09:54:00;4.10;;;0.95;;
73850;SDS011;62190;51.548;5.688;2023-02-28T09:56:30;3.80;;;1.52;;
73850;SDS011;62190;51.548;5.688;2023-02-28T09:59:09;3.55;;;0.82;;
73850;SDS011;62190;51.548;5.688;2023-02-28T10:06:53;2.58;;;1.05;;
73850;SDS011;62190;51.548;5.688;2023-02-28T10:09:24;3.90;;;0.90;;
73850;SDS011;62190;51.548;5.688;2023-02-28T10:11:54;2.30;;;1.00;;
73850;SDS011;62190;51.548;5.688;2023-02-28T10:14:23;0.98;;;0.60;;
73850;SDS011;62190;51.548;5.688;2023-02-28T10:16:56;2.17;;;0.72;;
73850;SDS011;62190;51.548;5.688;2023-02-28T10:19:51;2.45;;;0.82;;
73850;SDS011;62190;51.548;5.688;2023-02-28T10:22:18;2.08;;;0.80;;
73850;SDS011;62190;51.548;5.688;2023-02-28T10:24:48;3.15;;;0.88;;
73850;SDS011;62190;51.548;5.688;2023-02-28T10:29:54;1.77;;;0.90;;
73850;SDS011;62190;51.548;5.688;2023-02-28T10:32:24;2.45;;;0.85;;
73850;SDS011;62190;51.548;5.688;2023-02-28T10:35:00;2.00;;;1.07;;
73850;SDS011;62190;51.548;5.688;2023-02-28T10:37:41;2.37;;;1.10;;
73850;SDS011;62190;51.548;5.688;2023-02-28T10:43:04;1.82;;;0.82;;
73850;SDS011;62190;51.548;5.688;2023-02-28T10:45:33;1.77;;;0.98;;
73850;SDS011;62190;51.548;5.688;2023-02-28T10:48:03;2.92;;;1.10;;
73850;SDS011;62190;51.548;5.688;2023-02-28T10:50:43;2.25;;;1.00;;
73850;SDS011;62190;51.548;5.688;2023-02-28T10:55:43;2.00;;;1.17;;
73850;SDS011;62190;51.548;5.688;2023-02-28T10:58:57;2.58;;;0.90;;
73850;SDS011;62190;51.548;5.688;2023-02-28T11:00:46;1.47;;;1.00;;
73850;SDS011;62190;51.548;5.688;2023-02-28T11:03:31;2.45;;;0.80;;
73850;SDS011;62190;51.548;5.688;2023-02-28T11:06:04;3.50;;;1.10;;
73850;SDS011;62190;51.548;5.688;2023-02-28T11:08:32;1.82;;;1.00;;
73850;SDS011;62190;51.548;5.688;2023-02-28T11:11:01;1.92;;;1.07;;
73850;SDS011;62190;51.548;5.688;2023-02-28T11:13:34;1.75;;;1.12;;
73850;SDS011;62190;51.548;5.688;2023-02-28T11:16:04;3.42;;;1.10;;
73850;SDS011;62190;51.548;5.688;2023-02-28T11:18:49;1.87;;;1.20;;
73850;SDS011;62190;51.548;5.688;2023-02-28T11:21:22;3.00;;;1.20;;
73850;SDS011;62190;51.548;5.688;2023-02-28T11:23:52;1.80;;;1.15;;
73850;SDS011;62190;51.548;5.688;2023-02-28T11:26:38;2.75;;;1.05;;
73850;SDS011;62190;51.548;5.688;2023-02-28T11:29:49;1.80;;;0.93;;
73850;SDS011;62190;51.548;5.688;2023-02-28T11:31:40;2.83;;;1.35;;
73850;SDS011;62190;51.548;5.688;2023-02-28T11:34:22;2.33;;;1.07;;
73850;SDS011;62190;51.548;5.688;2023-02-28T11:36:50;2.85;;;1.07;;
73850;SDS011;62190;51.548;5.688;2023-02-28T11:39:19;1.80;;;0.90;;
73850;SDS011;62190;51.548;5.688;2023-02-28T11:47:21;1.72;;;0.90;;
73850;SDS011;62190;51.548;5.688;2023-02-28T11:55:26;3.22;;;1.20;;
73850;SDS011;62190;51.548;5.688;2023-02-28T12:07:25;2.08;;;1.10;;
73850;SDS011;62190;51.548;5.688;2023-02-28T12:09:28;3.85;;;1.15;;
73850;SDS011;62190;51.548;5.688;2023-02-28T12:12:06;2.10;;;1.05;;
73850;SDS011;62190;51.548;5.688;2023-02-28T12:14:47;2.85;;;1.45;;
73850;SDS011;62190;51.548;5.688;2023-02-28T12:20:17;3.83;;;1.15;;
73850;SDS011;62190;51.548;5.688;2023-02-28T12:25:45;2.25;;;1.32;;
73850;SDS011;62190;51.548;5.688;2023-02-28T12:28:34;2.05;;;1.22;;
73850;SDS011;62190;51.548;5.688;2023-02-28T12:31:08;2.15;;;1.07;;
73850;SDS011;62190;51.548;5.688;2023-02-28T12:33:40;2.25;;;1.05;;
73850;SDS011;62190;51.548;5.688;2023-02-28T12:36:13;2.85;;;1.60;;
73850;SDS011;62190;51.548;5.688;2023-02-28T12:38:44;3.20;;;1.47;;
73850;SDS011;62190;51.548;5.688;2023-02-28T12:41:18;2.10;;;1.10;;
73850;SDS011;62190;51.548;5.688;2023-02-28T12:43:52;2.40;;;1.40;;
73850;SDS011;62190;51.548;5.688;2023-02-28T12:46:30;3.08;;;1.25;;
73850;SDS011;62190;51.548;5.688;2023-02-28T12:49:05;2.17;;;1.47;;
73850;SDS011;62190;51.548;5.688;2023-02-28T12:51:35;3.02;;;1.37;;
73850;SDS011;62190;51.548;5.688;2023-02-28T12:54:05;2.30;;;1.47;;
73850;SDS011;62190;51.548;5.688;2023-02-28T13:04:54;1.80;;;1.07;;
73850;SDS011;62190;51.548;5.688;2023-02-28T13:10:19;2.30;;;1.67;;
73850;SDS011;62190;51.548;5.688;2023-02-28T13:12:47;2.15;;;1.10;;
73850;SDS011;62190;51.548;5.688;2023-02-28T13:15:22;2.62;;;1.40;;
73850;SDS011;62190;51.548;5.688;2023-02-28T13:17:51;2.50;;;1.40;;
73850;SDS011;62190;51.548;5.688;2023-02-28T13:20:20;2.80;;;1.37;;
73850;SDS011;62190;51.548;5.688;2023-02-28T13:22:53;1.90;;;1.17;;
73850;SDS011;62190;51.548;5.688;2023-02-28T13:27:53;2.75;;;1.32;;
73850;SDS011;62190;51.548;5.688;2023-02-28T13:36:09;1.85;;;1.05;;
73850;SDS011;62190;51.548;5.688;2023-02-28T13:38:51;3.05;;;1.10;;
73850;SDS011;62190;51.548;5.688;2023-02-28T13:54:48;5.30;;;1.32;;
73850;SDS011;62190;51.548;5.688;2023-02-28T14:05:18;2.95;;;1.60;;
73850;SDS011;62190;51.548;5.688;2023-02-28T14:07:51;3.33;;;1.40;;
73850;SDS011;62190;51.548;5.688;2023-02-28T14:10:26;2.98;;;1.70;;
73850;SDS011;62190;51.548;5.688;2023-02-28T14:16:07;2.67;;;1.40;;
73850;SDS011;62190;51.548;5.688;2023-02-28T14:18:34;2.35;;;1.60;;
73850;SDS011;62190;51.548;5.688;2023-02-28T14:21:10;2.00;;;1.77;;
73850;SDS011;62190;51.548;5.688;2023-02-28T14:26:46;2.42;;;1.50;;
73850;SDS011;62190;51.548;5.688;2023-02-28T14:34:55;3.12;;;1.52;;
73850;SDS011;62190;51.548;5.688;2023-02-28T14:37:33;3.72;;;1.70;;
73850;SDS011;62190;51.548;5.688;2023-02-28T14:39:57;5.53;;;2.27;;
73850;SDS011;62190;51.548;5.688;2023-02-28T14:42:30;3.47;;;1.80;;
73850;SDS011;62190;51.548;5.688;2023-02-28T14:44:59;2.33;;;1.50;;
73850;SDS011;62190;51.548;5.688;2023-02-28T14:47:30;2.70;;;1.57;;
73850;SDS011;62190;51.548;5.688;2023-02-28T14:49:59;2.67;;;1.60;;
73850;SDS011;62190;51.548;5.688;2023-02-28T14:52:27;3.35;;;1.60;;
73850;SDS011;62190;51.548;5.688;2023-02-28T14:55:04;3.08;;;1.47;;
73850;SDS011;62190;51.548;5.688;2023-02-28T14:57:35;2.50;;;1.50;;
73850;SDS011;62190;51.548;5.688;2023-02-28T15:00:10;2.95;;;1.55;;
73850;SDS011;62190;51.548;5.688;2023-02-28T15:05:24;3.80;;;1.75;;
73850;SDS011;62190;51.548;5.688;2023-02-28T15:08:12;2.70;;;1.77;;
73850;SDS011;62190;51.548;5.688;2023-02-28T15:10:44;3.70;;;1.55;;
73850;SDS011;62190;51.548;5.688;2023-02-28T15:13:22;2.85;;;1.60;;
73850;SDS011;62190;51.548;5.688;2023-02-28T15:15:54;3.52;;;1.60;;
73850;SDS011;62190;51.548;5.688;2023-02-28T15:21:27;3.17;;;1.67;;
73850;SDS011;62190;51.548;5.688;2023-02-28T15:26:32;4.12;;;1.90;;
73850;SDS011;62190;51.548;5.688;2023-02-28T15:29:01;2.70;;;1.57;;
73850;SDS011;62190;51.548;5.688;2023-02-28T15:31:40;4.95;;;2.17;;
73850;SDS011;62190;51.548;5.688;2023-02-28T15:34:26;2.47;;;2.08;;
73850;SDS011;62190;51.548;5.688;2023-02-28T15:36:50;3.25;;;2.30;;
73850;SDS011;62190;51.548;5.688;2023-02-28T15:39:19;2.22;;;1.50;;
73850;SDS011;62190;51.548;5.688;2023-02-28T15:41:48;3.33;;;1.92;;
73850;SDS011;62190;51.548;5.688;2023-02-28T15:44:38;2.83;;;1.90;;
73850;SDS011;62190;51.548;5.688;2023-02-28T15:46:55;4.28;;;2.35;;
73850;SDS011;62190;51.548;5.688;2023-02-28T15:49:29;3.83;;;2.45;;
73850;SDS011;62190;51.548;5.688;2023-02-28T15:52:19;3.00;;;2.15;;
73850;SDS011;62190;51.548;5.688;2023-02-28T15:54:44;3.10;;;1.85;;
73850;SDS011;62190;51.548;5.688;2023-02-28T15:57:19;2.98;;;1.60;;
73850;SDS011;62190;51.548;5.688;2023-02-28T16:00:00;3.40;;;2.50;;
73850;SDS011;62190;51.548;5.688;2023-02-28T16:02:32;2.72;;;1.70;;
73850;SDS011;62190;51.548;5.688;2023-02-28T16:05:12;4.28;;;2.47;;
73850;SDS011;62190;51.548;5.688;2023-02-28T16:07:38;3.05;;;1.87;;
73850;SDS011;62190;51.548;5.688;2023-02-28T16:10:08;2.87;;;1.62;;
73850;SDS011;62190;51.548;5.688;2023-02-28T16:12:37;3.87;;;1.90;;
73850;SDS011;62190;51.548;5.688;2023-02-28T16:15:06;2.95;;;2.17;;
73850;SDS011;62190;51.548;5.688;2023-02-28T16:17:44;3.58;;;2.20;;
73850;SDS011;62190;51.548;5.688;2023-02-28T16:20:15;3.90;;;2.02;;
73850;SDS011;62190;51.548;5.688;2023-02-28T16:22:45;4.00;;;2.40;;
73850;SDS011;62190;51.548;5.688;2023-02-28T16:25:12;3.92;;;1.65;;
73850;SDS011;62190;51.548;5.688;2023-02-28T16:27:42;5.90;;;2.40;;
73850;SDS011;62190;51.548;5.688;2023-02-28T16:30:16;3.52;;;1.95;;
73850;SDS011;62190;51.548;5.688;2023-02-28T16:32:43;5.10;;;2.17;;
73850;SDS011;62190;51.548;5.688;2023-02-28T16:35:11;4.33;;;1.98;;
73850;SDS011;62190;51.548;5.688;2023-02-28T16:37:39;3.85;;;2.12;;
73850;SDS011;62190;51.548;5.688;2023-02-28T16:40:09;3.77;;;2.10;;
73850;SDS011;62190;51.548;5.688;2023-02-28T16:42:37;4.10;;;1.90;;
73850;SDS011;62190;51.548;5.688;2023-02-28T16:45:05;3.62;;;2.27;;
73850;SDS011;62190;51.548;5.688;2023-02-28T16:47:34;3.27;;;2.35;;
73850;SDS011;62190;51.548;5.688;2023-02-28T16:50:04;3.25;;;2.10;;
73850;SDS011;62190;51.548;5.688;2023-02-28T16:52:48;3.72;;;1.85;;
73850;SDS011;62190;51.548;5.688;2023-02-28T16:55:17;5.72;;;2.70;;
73850;SDS011;62190;51.548;5.688;2023-02-28T16:57:46;2.90;;;1.82;;
73850;SDS011;62190;51.548;5.688;2023-02-28T17:00:15;4.33;;;2.17;;
73850;SDS011;62190;51.548;5.688;2023-02-28T17:02:43;6.55;;;2.58;;
73850;SDS011;62190;51.548;5.688;2023-02-28T17:05:11;4.67;;;2.75;;
73850;SDS011;62190;51.548;5.688;2023-02-28T17:07:42;6.17;;;2.62;;
73850;SDS011;62190;51.548;5.688;2023-02-28T17:10:16;4.12;;;2.35;;
73850;SDS011;62190;51.548;5.688;2023-02-28T17:12:48;5.22;;;2.95;;
73850;SDS011;62190;51.548;5.688;2023-02-28T17:15:17;3.00;;;2.30;;
73850;SDS011;62190;51.548;5.688;2023-02-28T17:17:45;4.70;;;2.52;;